createdAt,value
2022-09-23T00:02:24.878Z,69.16
2022-09-23T00:07:26.112Z,70.15
2022-09-23T00:12:27.326Z,70.02
2022-09-23T00:17:28.526Z,71.11
2022-09-23T00:22:29.721Z,71.07
2022-09-23T00:27:30.988Z,69.87
2022-09-23T00:32:32.209Z,69.87
2022-09-23T00:37:33.713Z,70.86
2022-09-23T00:42:34.990Z,70.35
2022-09-23T00:47:36.228Z,70.01
2022-09-23T00:52:37.479Z,70.04
2022-09-23T00:57:38.899Z,70.30
2022-09-23T01:02:40.164Z,69.31
2022-09-23T01:07:41.468Z,69.81
2022-09-23T01:12:42.712Z,69.65
2022-09-23T01:17:44.067Z,70.11
2022-09-23T01:22:46.662Z,70.35
2022-09-23T01:27:47.907Z,70.48
2022-09-23T01:32:49.146Z,70.03
2022-09-23T01:37:50.398Z,70.23
2022-09-23T01:42:52.125Z,70.43
2022-09-23T01:47:53.485Z,70.56
2022-09-23T01:52:54.785Z,70.22
2022-09-23T01:57:56.095Z,70.30
2022-09-23T02:02:58.874Z,70.55
2022-09-23T02:08:00.098Z,69.84
2022-09-23T02:13:01.326Z,69.75
2022-09-23T02:18:02.573Z,69.84
2022-09-23T02:23:03.845Z,70.33
2022-09-23T02:28:05.089Z,70.36
2022-09-23T02:33:07.082Z,70.29
2022-09-23T02:38:08.326Z,70.05
2022-09-23T02:43:09.585Z,69.89
2022-09-23T02:48:10.808Z,70.86
2022-09-23T02:53:12.010Z,70.89
2022-09-23T02:58:13.987Z,71.12
2022-09-23T03:03:15.662Z,70.54
2022-09-23T03:08:19.217Z,70.93
2022-09-23T03:13:26.130Z,71.40
2022-09-23T03:18:31.625Z,71.20
2022-09-23T03:23:33.850Z,72.20
2022-09-23T03:28:35.035Z,72.08
2022-09-23T03:33:36.275Z,72.47
2022-09-23T03:38:37.916Z,72.15
2022-09-23T03:43:39.192Z,72.08
2022-09-23T03:48:40.707Z,72.63
2022-09-23T03:53:42.355Z,73.09
2022-09-23T03:58:45.443Z,74.32
2022-09-23T04:03:46.650Z,73.56
2022-09-23T04:08:47.853Z,73.97
2022-09-23T04:13:49.066Z,73.60
2022-09-23T04:18:50.282Z,72.96
2022-09-23T04:23:51.991Z,72.69
2022-09-23T04:28:53.219Z,73.59
2022-09-23T04:33:54.422Z,74.40
2022-09-23T04:38:56.295Z,73.77
2022-09-23T04:43:57.644Z,73.58
2022-09-23T04:48:59.000Z,74.01
2022-09-23T04:54:00.241Z,73.99
2022-09-23T04:59:04.531Z,74.84
2022-09-23T05:04:05.847Z,75.50
2022-09-23T05:09:07.214Z,77.34
2022-09-23T05:14:08.615Z,75.96
2022-09-23T05:19:09.949Z,75.96
2022-09-23T05:24:11.194Z,75.54
2022-09-23T05:29:12.429Z,75.28
2022-09-23T05:34:13.649Z,76.25
2022-09-23T05:39:14.922Z,76.25
2022-09-23T05:44:16.183Z,76.97
2022-09-23T05:49:17.428Z,77.47
2022-09-23T05:54:19.142Z,78.20
2022-09-23T05:59:20.408Z,77.91
2022-09-23T06:04:21.833Z,78.21
2022-09-23T06:09:23.065Z,79.63
2022-09-23T06:14:24.483Z,79.56
2022-09-23T06:19:25.683Z,79.57
2022-09-23T06:24:31.026Z,81.06
2022-09-23T06:29:33.172Z,80.79
2022-09-23T06:34:45.322Z,80.47
2022-09-23T06:39:52.619Z,80.84
2022-09-23T06:44:53.955Z,80.13
2022-09-23T06:49:55.157Z,79.44
2022-09-23T06:54:56.815Z,79.54
2022-09-23T06:59:59.091Z,79.06
2022-09-23T07:05:00.447Z,79.46
2022-09-23T07:10:01.752Z,79.26
2022-09-23T07:15:02.965Z,77.79
2022-09-23T07:20:04.447Z,83.74
2022-09-23T07:25:06.211Z,72.58
2022-09-23T07:30:11.450Z,73.64
2022-09-23T07:35:17.762Z,74.18
2022-09-23T07:40:19.055Z,73.85
2022-09-23T07:45:21.786Z,72.67
2022-09-23T07:50:23.080Z,73.14
2022-09-23T07:55:24.304Z,72.43
2022-09-23T08:00:25.498Z,72.50
2022-09-23T08:05:26.730Z,72.88
2022-09-23T08:10:28.149Z,74.41
2022-09-23T08:15:29.934Z,72.28
2022-09-23T08:20:47.740Z,70.79
2022-09-23T08:25:49.407Z,66.65
2022-09-23T08:30:50.649Z,67.08
2022-09-23T08:35:52.047Z,65.88
2022-09-23T08:40:53.333Z,61.31
2022-09-23T08:45:54.610Z,59.48
2022-09-23T08:50:58.442Z,53.49
2022-09-23T08:55:59.708Z,57.41
2022-09-23T09:01:01.005Z,56.99
2022-09-23T09:06:02.265Z,56.01
2022-09-23T09:11:03.466Z,57.87
2022-09-23T09:16:06.124Z,58.75
2022-09-23T09:21:09.941Z,55.62
2022-09-23T09:26:11.155Z,55.98
2022-09-23T09:31:12.400Z,56.56
2022-09-23T09:36:13.635Z,56.29
2022-09-23T09:41:15.113Z,54.38
2022-09-23T09:46:16.357Z,54.78
2022-09-23T09:51:18.763Z,55.27
2022-09-23T09:56:20.622Z,53.93
2022-09-23T10:01:21.852Z,53.19
2022-09-23T10:06:24.325Z,51.84
2022-09-23T10:11:25.550Z,53.02
2022-09-23T10:16:26.784Z,51.79
2022-09-23T10:21:33.171Z,52.58
2022-09-23T10:26:34.441Z,52.15
2022-09-23T10:31:35.693Z,53.52
2022-09-23T10:36:40.086Z,50.85
2022-09-23T10:42:02.643Z,50.56
2022-09-23T10:47:03.907Z,51.77
2022-09-23T10:52:05.273Z,48.83
2022-09-23T10:57:26.482Z,47.97
2022-09-23T11:02:28.359Z,47.92
2022-09-23T11:07:32.751Z,49.30
2022-09-23T11:12:37.043Z,48.09
2022-09-23T11:17:38.264Z,48.31
2022-09-23T11:22:39.483Z,48.01
2022-09-23T11:27:40.705Z,49.85
2022-09-23T11:32:41.926Z,47.63
2022-09-23T11:37:43.122Z,47.13
2022-09-23T11:42:44.402Z,47.98
2022-09-23T11:47:45.623Z,47.10
2022-09-23T11:52:46.830Z,48.31
2022-09-23T11:57:49.490Z,45.00
2022-09-23T12:03:01.961Z,44.59
2022-09-23T12:08:05.693Z,46.87
2022-09-23T12:13:07.327Z,44.29
2022-09-23T12:18:10.562Z,45.65
2022-09-23T12:23:13.254Z,45.22
2022-09-23T12:28:14.462Z,46.71
2022-09-23T12:33:15.791Z,44.49
2022-09-23T12:38:17.026Z,43.67
2022-09-23T12:43:18.266Z,45.73
2022-09-23T12:48:19.467Z,44.20
2022-09-23T12:53:20.923Z,41.40
2022-09-23T12:58:22.152Z,41.18
2022-09-23T13:03:42.325Z,41.22
2022-09-23T13:08:43.551Z,41.56
2022-09-23T13:13:44.770Z,41.86
2022-09-23T13:18:46.080Z,41.08
2022-09-23T13:23:47.283Z,40.14
2022-09-23T13:28:48.532Z,38.66
2022-09-23T13:33:49.733Z,39.14
2022-09-23T13:38:50.934Z,39.14
2022-09-23T13:43:52.149Z,37.15
2022-09-23T13:48:56.543Z,38.18
2022-09-23T13:53:57.775Z,36.36
2022-09-23T13:58:58.992Z,36.99
2022-09-23T14:04:00.241Z,36.78
2022-09-23T14:09:01.561Z,38.57
2022-09-23T14:14:06.987Z,36.46
2022-09-23T14:19:08.354Z,37.70
2022-09-23T14:24:09.590Z,36.32
2022-09-23T14:29:10.840Z,38.87
2022-09-23T14:34:12.053Z,39.10
2022-09-23T14:39:13.366Z,36.32
2022-09-23T14:44:14.566Z,37.61
2022-09-23T14:49:15.811Z,38.44
2022-09-23T14:54:17.028Z,37.54
2022-09-23T14:59:18.228Z,38.27
2022-09-23T15:04:19.755Z,37.43
2022-09-23T15:09:21.071Z,37.76
2022-09-23T15:14:37.301Z,37.97
2022-09-23T15:19:39.286Z,38.86
2022-09-23T15:24:40.565Z,38.29
2022-09-23T15:29:41.808Z,39.04
2022-09-23T15:34:43.095Z,42.94
2022-09-23T15:39:44.352Z,43.54
2022-09-23T15:44:45.709Z,44.53
2022-09-23T15:49:47.245Z,47.16
2022-09-23T15:54:48.488Z,46.74
2022-09-23T15:59:49.719Z,44.92
2022-09-23T16:04:52.345Z,51.58
2022-09-23T16:09:54.773Z,50.04
2022-09-23T16:14:56.025Z,50.03
2022-09-23T16:19:57.296Z,54.22
2022-09-23T16:24:58.585Z,50.95
2022-09-23T16:29:59.820Z,49.81
2022-09-23T16:35:01.039Z,50.17
2022-09-23T16:40:03.675Z,49.89
2022-09-23T16:45:06.053Z,49.96
2022-09-23T16:50:09.214Z,50.10
2022-09-23T16:55:10.613Z,49.79
2022-09-23T17:00:30.730Z,48.69
2022-09-23T17:05:31.991Z,51.83
2022-09-23T17:10:33.208Z,54.47
2022-09-23T17:15:34.415Z,54.61
2022-09-23T17:20:35.624Z,56.69
2022-09-23T17:25:36.839Z,58.16
2022-09-23T17:30:39.287Z,57.72
2022-09-23T17:35:40.483Z,57.98
2022-09-23T17:40:42.015Z,60.14
2022-09-23T17:45:43.373Z,60.92
2022-09-23T17:50:44.586Z,62.53
2022-09-23T17:55:45.794Z,62.63
2022-09-23T18:00:47.107Z,64.55
2022-09-23T18:05:48.375Z,64.40
2022-09-23T18:10:49.583Z,64.30
2022-09-23T18:15:50.819Z,64.42
2022-09-23T18:20:52.019Z,64.12
2022-09-23T18:25:53.219Z,65.76
2022-09-23T18:30:54.442Z,64.97
2022-09-23T18:35:55.677Z,63.86
2022-09-23T18:40:57.519Z,64.81
2022-09-23T18:45:58.921Z,65.54
2022-09-23T18:51:00.153Z,65.52
2022-09-23T18:56:02.345Z,66.90
2022-09-23T19:01:03.632Z,67.48
2022-09-23T19:06:04.918Z,66.68
2022-09-23T19:11:06.154Z,67.08
2022-09-23T19:16:07.695Z,66.77
2022-09-23T19:21:09.017Z,66.29
2022-09-23T19:26:10.334Z,67.82
2022-09-23T19:31:11.839Z,67.14
2022-09-23T19:36:13.236Z,67.53
2022-09-23T19:41:14.442Z,67.51
2022-09-23T19:46:16.093Z,69.05
2022-09-23T19:51:19.384Z,67.88
2022-09-23T19:56:20.632Z,67.48
2022-09-23T20:01:21.904Z,67.43
2022-09-23T20:06:23.179Z,67.12
2022-09-23T20:11:28.435Z,66.97
2022-09-23T20:16:31.859Z,67.95
2022-09-23T20:21:33.740Z,68.45
2022-09-23T20:26:53.798Z,67.38
2022-09-23T20:31:56.938Z,69.64
2022-09-23T20:36:59.176Z,70.97
2022-09-23T20:42:02.611Z,70.60
2022-09-23T20:47:03.905Z,69.52
2022-09-23T20:52:06.334Z,70.34
2022-09-23T20:57:07.534Z,71.08
2022-09-23T21:02:08.834Z,71.21
2022-09-23T21:07:10.228Z,70.96
2022-09-23T21:12:11.636Z,70.19
2022-09-23T21:17:12.864Z,70.33
2022-09-23T21:22:14.166Z,70.08
2022-09-23T21:27:15.405Z,70.30
2022-09-23T21:32:16.623Z,70.96
2022-09-23T21:37:17.860Z,71.08
2022-09-23T21:42:19.116Z,70.43
2022-09-23T21:47:20.330Z,70.23
2022-09-23T21:52:21.569Z,71.86
2022-09-23T21:57:25.880Z,71.69
2022-09-23T22:02:27.501Z,71.34
2022-09-23T22:07:28.709Z,70.78
2022-09-23T22:12:29.914Z,70.10
2022-09-23T22:17:32.385Z,69.84
2022-09-23T22:22:33.599Z,70.14
2022-09-23T22:27:54.800Z,70.48
2022-09-23T22:32:56.029Z,70.04
2022-09-23T22:37:57.259Z,70.66
2022-09-23T22:42:58.482Z,70.93
2022-09-23T22:47:59.691Z,71.87
2022-09-23T22:53:01.808Z,71.28
2022-09-23T22:58:21.298Z,70.79
2022-09-23T23:03:24.292Z,72.26
2022-09-23T23:08:27.074Z,71.99
2022-09-23T23:13:28.321Z,71.94
2022-09-23T23:18:31.483Z,72.00
2022-09-23T23:23:32.718Z,71.50
2022-09-23T23:28:33.916Z,71.33
2022-09-23T23:33:35.126Z,71.40
2022-09-23T23:38:36.858Z,71.87
2022-09-23T23:43:38.588Z,72.96
2022-09-23T23:48:39.895Z,72.14
2022-09-23T23:53:41.166Z,72.78
2022-09-23T23:58:42.398Z,73.10
